sensor_id;sensor_type;location;lat;lon;timestamp;P1;durP1;ratioP1;P2;durP2;ratioP2
11151;SDS011;5630;49.342;10.802;2022-12-18T00:01:18;69.85;;;43.70;;
11151;SDS011;5630;49.342;10.802;2022-12-18T00:03:56;70.25;;;43.78;;
11151;SDS011;5630;49.342;10.802;2022-12-18T00:06:22;76.00;;;44.25;;
11151;SDS011;5630;49.342;10.802;2022-12-18T00:08:49;70.85;;;43.10;;
11151;SDS011;5630;49.342;10.802;2022-12-18T00:11:16;72.97;;;43.85;;
11151;SDS011;5630;49.342;10.802;2022-12-18T00:13:44;71.05;;;44.97;;
11151;SDS011;5630;49.342;10.802;2022-12-18T00:16:11;78.90;;;47.43;;
11151;SDS011;5630;49.342;10.802;2022-12-18T00:18:38;73.47;;;46.22;;
11151;SDS011;5630;49.342;10.802;2022-12-18T00:21:05;72.00;;;43.47;;
11151;SDS011;5630;49.342;10.802;2022-12-18T00:23:32;65.85;;;42.03;;
11151;SDS011;5630;49.342;10.802;2022-12-18T00:25:59;61.65;;;40.88;;
11151;SDS011;5630;49.342;10.802;2022-12-18T00:28:26;65.20;;;39.90;;
11151;SDS011;5630;49.342;10.802;2022-12-18T00:30:59;64.87;;;39.57;;
11151;SDS011;5630;49.342;10.802;2022-12-18T00:33:28;62.60;;;39.67;;
11151;SDS011;5630;49.342;10.802;2022-12-18T00:35:54;62.28;;;38.90;;
11151;SDS011;5630;49.342;10.802;2022-12-18T00:38:24;59.97;;;38.33;;
11151;SDS011;5630;49.342;10.802;2022-12-18T00:40:50;59.93;;;37.70;;
11151;SDS011;5630;49.342;10.802;2022-12-18T00:43:15;56.87;;;36.23;;
11151;SDS011;5630;49.342;10.802;2022-12-18T00:45:41;67.10;;;38.50;;
11151;SDS011;5630;49.342;10.802;2022-12-18T00:48:06;59.57;;;36.30;;
11151;SDS011;5630;49.342;10.802;2022-12-18T00:50:32;55.00;;;36.10;;
11151;SDS011;5630;49.342;10.802;2022-12-18T00:52:58;57.20;;;36.90;;
11151;SDS011;5630;49.342;10.802;2022-12-18T00:55:23;55.70;;;35.83;;
11151;SDS011;5630;49.342;10.802;2022-12-18T00:57:50;54.20;;;35.40;;
11151;SDS011;5630;49.342;10.802;2022-12-18T01:00:17;55.72;;;35.95;;
11151;SDS011;5630;49.342;10.802;2022-12-18T01:02:43;56.53;;;35.63;;
11151;SDS011;5630;49.342;10.802;2022-12-18T01:05:09;58.57;;;36.03;;
11151;SDS011;5630;49.342;10.802;2022-12-18T01:07:36;54.83;;;35.38;;
11151;SDS011;5630;49.342;10.802;2022-12-18T01:10:02;57.22;;;35.03;;
11151;SDS011;5630;49.342;10.802;2022-12-18T01:12:29;58.65;;;35.70;;
11151;SDS011;5630;49.342;10.802;2022-12-18T01:14:54;56.07;;;37.17;;
11151;SDS011;5630;49.342;10.802;2022-12-18T01:17:20;57.20;;;35.70;;
11151;SDS011;5630;49.342;10.802;2022-12-18T01:19:46;58.83;;;36.08;;
11151;SDS011;5630;49.342;10.802;2022-12-18T01:22:12;56.97;;;35.53;;
11151;SDS011;5630;49.342;10.802;2022-12-18T01:24:37;55.90;;;36.37;;
11151;SDS011;5630;49.342;10.802;2022-12-18T01:27:03;53.90;;;35.33;;
11151;SDS011;5630;49.342;10.802;2022-12-18T01:29:28;55.50;;;37.60;;
11151;SDS011;5630;49.342;10.802;2022-12-18T01:31:54;57.33;;;35.77;;
11151;SDS011;5630;49.342;10.802;2022-12-18T01:34:20;59.85;;;36.85;;
11151;SDS011;5630;49.342;10.802;2022-12-18T01:36:47;61.90;;;34.83;;
11151;SDS011;5630;49.342;10.802;2022-12-18T01:39:13;67.37;;;36.73;;
11151;SDS011;5630;49.342;10.802;2022-12-18T01:41:39;64.13;;;36.92;;
11151;SDS011;5630;49.342;10.802;2022-12-18T01:47:18;65.00;;;37.65;;
11151;SDS011;5630;49.342;10.802;2022-12-18T01:49:45;64.45;;;38.80;;
11151;SDS011;5630;49.342;10.802;2022-12-18T01:52:14;62.13;;;37.67;;
11151;SDS011;5630;49.342;10.802;2022-12-18T01:54:40;62.97;;;35.55;;
11151;SDS011;5630;49.342;10.802;2022-12-18T01:57:06;64.37;;;38.33;;
11151;SDS011;5630;49.342;10.802;2022-12-18T01:59:32;61.50;;;36.67;;
11151;SDS011;5630;49.342;10.802;2022-12-18T02:02:00;60.60;;;37.85;;
11151;SDS011;5630;49.342;10.802;2022-12-18T02:04:27;64.40;;;37.58;;
11151;SDS011;5630;49.342;10.802;2022-12-18T02:07:05;61.27;;;35.60;;
11151;SDS011;5630;49.342;10.802;2022-12-18T02:09:46;62.92;;;37.55;;
11151;SDS011;5630;49.342;10.802;2022-12-18T02:12:17;63.90;;;37.90;;
11151;SDS011;5630;49.342;10.802;2022-12-18T02:14:49;65.35;;;38.40;;
11151;SDS011;5630;49.342;10.802;2022-12-18T02:17:23;67.47;;;38.95;;
11151;SDS011;5630;49.342;10.802;2022-12-18T02:25:13;65.80;;;39.45;;
11151;SDS011;5630;49.342;10.802;2022-12-18T02:27:58;69.95;;;39.17;;
11151;SDS011;5630;49.342;10.802;2022-12-18T02:30:27;66.88;;;37.88;;
11151;SDS011;5630;49.342;10.802;2022-12-18T02:32:56;63.97;;;38.60;;
11151;SDS011;5630;49.342;10.802;2022-12-18T02:35:24;64.93;;;38.00;;
11151;SDS011;5630;49.342;10.802;2022-12-18T02:37:52;70.05;;;38.75;;
11151;SDS011;5630;49.342;10.802;2022-12-18T02:40:19;65.50;;;37.30;;
11151;SDS011;5630;49.342;10.802;2022-12-18T02:42:46;65.25;;;37.65;;
11151;SDS011;5630;49.342;10.802;2022-12-18T02:45:12;68.80;;;38.83;;
11151;SDS011;5630;49.342;10.802;2022-12-18T02:47:39;62.47;;;37.20;;
11151;SDS011;5630;49.342;10.802;2022-12-18T02:50:18;66.22;;;37.78;;
11151;SDS011;5630;49.342;10.802;2022-12-18T02:55:28;63.60;;;36.85;;
11151;SDS011;5630;49.342;10.802;2022-12-18T03:03:15;67.28;;;37.13;;
11151;SDS011;5630;49.342;10.802;2022-12-18T03:08:18;64.20;;;37.35;;
11151;SDS011;5630;49.342;10.802;2022-12-18T03:10:49;62.72;;;38.08;;
11151;SDS011;5630;49.342;10.802;2022-12-18T03:13:32;68.00;;;39.28;;
11151;SDS011;5630;49.342;10.802;2022-12-18T03:16:11;60.60;;;36.03;;
11151;SDS011;5630;49.342;10.802;2022-12-18T03:19:14;66.53;;;36.67;;
11151;SDS011;5630;49.342;10.802;2022-12-18T03:21:37;61.10;;;35.45;;
11151;SDS011;5630;49.342;10.802;2022-12-18T03:24:14;59.10;;;35.67;;
11151;SDS011;5630;49.342;10.802;2022-12-18T03:26:42;60.53;;;34.72;;
11151;SDS011;5630;49.342;10.802;2022-12-18T03:29:28;56.67;;;34.88;;
11151;SDS011;5630;49.342;10.802;2022-12-18T03:32:06;50.75;;;32.03;;
11151;SDS011;5630;49.342;10.802;2022-12-18T03:34:36;54.88;;;32.00;;
11151;SDS011;5630;49.342;10.802;2022-12-18T03:37:06;52.80;;;32.47;;
11151;SDS011;5630;49.342;10.802;2022-12-18T03:39:32;55.63;;;33.50;;
11151;SDS011;5630;49.342;10.802;2022-12-18T03:47:11;53.88;;;31.67;;
11151;SDS011;5630;49.342;10.802;2022-12-18T03:50:33;56.83;;;32.17;;
11151;SDS011;5630;49.342;10.802;2022-12-18T03:52:36;51.50;;;31.00;;
11151;SDS011;5630;49.342;10.802;2022-12-18T03:55:07;55.30;;;32.30;;
11151;SDS011;5630;49.342;10.802;2022-12-18T03:57:35;53.60;;;30.65;;
11151;SDS011;5630;49.342;10.802;2022-12-18T04:00:08;55.13;;;32.17;;
11151;SDS011;5630;49.342;10.802;2022-12-18T04:02:37;57.70;;;33.10;;
11151;SDS011;5630;49.342;10.802;2022-12-18T04:05:05;55.03;;;30.88;;
11151;SDS011;5630;49.342;10.802;2022-12-18T04:07:33;55.47;;;32.25;;
11151;SDS011;5630;49.342;10.802;2022-12-18T04:09:59;53.38;;;30.95;;
11151;SDS011;5630;49.342;10.802;2022-12-18T04:12:28;55.00;;;30.38;;
11151;SDS011;5630;49.342;10.802;2022-12-18T04:14:54;57.28;;;32.78;;
11151;SDS011;5630;49.342;10.802;2022-12-18T04:17:20;59.37;;;32.63;;
11151;SDS011;5630;49.342;10.802;2022-12-18T04:19:47;61.03;;;32.33;;
11151;SDS011;5630;49.342;10.802;2022-12-18T04:22:13;60.13;;;32.40;;
11151;SDS011;5630;49.342;10.802;2022-12-18T04:24:38;63.67;;;35.67;;
11151;SDS011;5630;49.342;10.802;2022-12-18T04:27:04;58.03;;;31.93;;
11151;SDS011;5630;49.342;10.802;2022-12-18T04:29:29;62.70;;;33.83;;
11151;SDS011;5630;49.342;10.802;2022-12-18T04:31:55;61.27;;;33.93;;
11151;SDS011;5630;49.342;10.802;2022-12-18T04:34:21;59.67;;;32.83;;
11151;SDS011;5630;49.342;10.802;2022-12-18T04:36:46;62.00;;;33.27;;
11151;SDS011;5630;49.342;10.802;2022-12-18T04:39:12;60.60;;;33.78;;
11151;SDS011;5630;49.342;10.802;2022-12-18T04:41:38;57.40;;;33.20;;
11151;SDS011;5630;49.342;10.802;2022-12-18T04:44:05;57.95;;;32.67;;
11151;SDS011;5630;49.342;10.802;2022-12-18T04:46:30;59.17;;;33.17;;
11151;SDS011;5630;49.342;10.802;2022-12-18T04:48:56;58.53;;;33.57;;
11151;SDS011;5630;49.342;10.802;2022-12-18T04:51:22;62.40;;;35.67;;
11151;SDS011;5630;49.342;10.802;2022-12-18T04:53:47;57.07;;;33.63;;
11151;SDS011;5630;49.342;10.802;2022-12-18T04:56:13;63.07;;;33.87;;
11151;SDS011;5630;49.342;10.802;2022-12-18T04:58:41;61.92;;;33.95;;
11151;SDS011;5630;49.342;10.802;2022-12-18T05:01:08;60.35;;;35.10;;
11151;SDS011;5630;49.342;10.802;2022-12-18T05:03:34;61.53;;;33.95;;
11151;SDS011;5630;49.342;10.802;2022-12-18T05:06:01;62.03;;;35.00;;
11151;SDS011;5630;49.342;10.802;2022-12-18T05:08:27;65.00;;;35.13;;
11151;SDS011;5630;49.342;10.802;2022-12-18T05:10:59;59.13;;;33.70;;
11151;SDS011;5630;49.342;10.802;2022-12-18T05:13:27;57.28;;;32.30;;
11151;SDS011;5630;49.342;10.802;2022-12-18T05:15:53;60.65;;;32.40;;
11151;SDS011;5630;49.342;10.802;2022-12-18T05:18:19;58.40;;;32.22;;
11151;SDS011;5630;49.342;10.802;2022-12-18T05:20:45;54.00;;;32.57;;
11151;SDS011;5630;49.342;10.802;2022-12-18T05:23:10;56.67;;;32.17;;
11151;SDS011;5630;49.342;10.802;2022-12-18T05:25:36;58.13;;;33.13;;
11151;SDS011;5630;49.342;10.802;2022-12-18T05:28:01;61.10;;;34.23;;
11151;SDS011;5630;49.342;10.802;2022-12-18T05:30:27;55.57;;;32.43;;
11151;SDS011;5630;49.342;10.802;2022-12-18T05:32:52;55.67;;;32.77;;
11151;SDS011;5630;49.342;10.802;2022-12-18T05:35:18;57.87;;;33.90;;
11151;SDS011;5630;49.342;10.802;2022-12-18T05:37:44;54.00;;;32.23;;
11151;SDS011;5630;49.342;10.802;2022-12-18T05:40:10;60.10;;;33.13;;
11151;SDS011;5630;49.342;10.802;2022-12-18T05:42:36;54.30;;;31.45;;
11151;SDS011;5630;49.342;10.802;2022-12-18T05:45:02;54.70;;;31.90;;
11151;SDS011;5630;49.342;10.802;2022-12-18T05:47:29;55.72;;;32.53;;
11151;SDS011;5630;49.342;10.802;2022-12-18T05:49:55;55.53;;;32.73;;
11151;SDS011;5630;49.342;10.802;2022-12-18T05:52:20;55.33;;;31.57;;
11151;SDS011;5630;49.342;10.802;2022-12-18T05:54:46;54.53;;;31.53;;
11151;SDS011;5630;49.342;10.802;2022-12-18T05:57:12;52.90;;;31.97;;
11151;SDS011;5630;49.342;10.802;2022-12-18T05:59:37;55.23;;;31.13;;
11151;SDS011;5630;49.342;10.802;2022-12-18T06:02:03;51.47;;;31.50;;
11151;SDS011;5630;49.342;10.802;2022-12-18T06:04:28;54.03;;;31.57;;
11151;SDS011;5630;49.342;10.802;2022-12-18T06:06:57;51.92;;;31.67;;
11151;SDS011;5630;49.342;10.802;2022-12-18T06:09:22;59.27;;;33.13;;
11151;SDS011;5630;49.342;10.802;2022-12-18T06:11:48;54.53;;;31.43;;
11151;SDS011;5630;49.342;10.802;2022-12-18T06:14:15;53.30;;;33.17;;
11151;SDS011;5630;49.342;10.802;2022-12-18T06:16:42;49.95;;;32.15;;
11151;SDS011;5630;49.342;10.802;2022-12-18T06:19:07;53.37;;;32.53;;
11151;SDS011;5630;49.342;10.802;2022-12-18T06:21:38;54.10;;;31.85;;
11151;SDS011;5630;49.342;10.802;2022-12-18T06:24:04;55.20;;;31.13;;
11151;SDS011;5630;49.342;10.802;2022-12-18T06:26:29;49.37;;;30.13;;
11151;SDS011;5630;49.342;10.802;2022-12-18T06:28:55;54.37;;;30.83;;
11151;SDS011;5630;49.342;10.802;2022-12-18T06:31:21;53.73;;;31.20;;
11151;SDS011;5630;49.342;10.802;2022-12-18T06:33:46;50.97;;;30.73;;
11151;SDS011;5630;49.342;10.802;2022-12-18T06:36:12;50.43;;;31.67;;
11151;SDS011;5630;49.342;10.802;2022-12-18T06:38:40;54.63;;;32.30;;
11151;SDS011;5630;49.342;10.802;2022-12-18T06:41:07;51.63;;;29.60;;
11151;SDS011;5630;49.342;10.802;2022-12-18T06:43:37;46.75;;;29.02;;
11151;SDS011;5630;49.342;10.802;2022-12-18T06:46:03;49.00;;;30.47;;
11151;SDS011;5630;49.342;10.802;2022-12-18T06:48:29;51.33;;;30.50;;
11151;SDS011;5630;49.342;10.802;2022-12-18T06:50:55;52.88;;;32.28;;
11151;SDS011;5630;49.342;10.802;2022-12-18T06:53:21;50.27;;;30.67;;
11151;SDS011;5630;49.342;10.802;2022-12-18T06:55:47;49.77;;;30.50;;
11151;SDS011;5630;49.342;10.802;2022-12-18T06:58:13;51.75;;;32.03;;
11151;SDS011;5630;49.342;10.802;2022-12-18T07:00:39;45.13;;;29.33;;
11151;SDS011;5630;49.342;10.802;2022-12-18T07:03:04;50.63;;;31.23;;
11151;SDS011;5630;49.342;10.802;2022-12-18T07:05:30;46.37;;;29.30;;
11151;SDS011;5630;49.342;10.802;2022-12-18T07:07:56;46.30;;;28.87;;
11151;SDS011;5630;49.342;10.802;2022-12-18T07:10:22;48.83;;;29.58;;
11151;SDS011;5630;49.342;10.802;2022-12-18T07:12:47;46.73;;;27.37;;
11151;SDS011;5630;49.342;10.802;2022-12-18T07:15:13;46.07;;;29.37;;
11151;SDS011;5630;49.342;10.802;2022-12-18T07:17:38;47.97;;;29.20;;
11151;SDS011;5630;49.342;10.802;2022-12-18T07:20:04;55.43;;;32.23;;
11151;SDS011;5630;49.342;10.802;2022-12-18T07:22:30;51.97;;;30.23;;
11151;SDS011;5630;49.342;10.802;2022-12-18T07:24:56;44.60;;;28.53;;
11151;SDS011;5630;49.342;10.802;2022-12-18T07:27:21;48.47;;;29.57;;
11151;SDS011;5630;49.342;10.802;2022-12-18T07:29:47;44.75;;;26.35;;
11151;SDS011;5630;49.342;10.802;2022-12-18T07:32:13;45.87;;;24.37;;
11151;SDS011;5630;49.342;10.802;2022-12-18T07:34:38;75.00;;;36.80;;
11151;SDS011;5630;49.342;10.802;2022-12-18T07:37:04;64.23;;;35.70;;
11151;SDS011;5630;49.342;10.802;2022-12-18T07:39:30;55.07;;;33.77;;
11151;SDS011;5630;49.342;10.802;2022-12-18T07:41:55;45.90;;;27.27;;
11151;SDS011;5630;49.342;10.802;2022-12-18T07:44:39;44.10;;;27.58;;
11151;SDS011;5630;49.342;10.802;2022-12-18T07:47:05;46.77;;;28.00;;
11151;SDS011;5630;49.342;10.802;2022-12-18T07:49:31;47.63;;;28.17;;
11151;SDS011;5630;49.342;10.802;2022-12-18T07:51:56;48.30;;;28.50;;
11151;SDS011;5630;49.342;10.802;2022-12-18T07:54:23;47.08;;;28.60;;
11151;SDS011;5630;49.342;10.802;2022-12-18T07:56:50;50.08;;;23.48;;
11151;SDS011;5630;49.342;10.802;2022-12-18T07:59:16;55.22;;;27.27;;
11151;SDS011;5630;49.342;10.802;2022-12-18T08:01:42;56.78;;;30.77;;
11151;SDS011;5630;49.342;10.802;2022-12-18T08:04:08;51.23;;;27.37;;
11151;SDS011;5630;49.342;10.802;2022-12-18T08:06:34;44.47;;;24.50;;
11151;SDS011;5630;49.342;10.802;2022-12-18T08:08:59;40.33;;;22.50;;
11151;SDS011;5630;49.342;10.802;2022-12-18T08:11:26;42.30;;;23.53;;
11151;SDS011;5630;49.342;10.802;2022-12-18T08:13:52;40.05;;;23.55;;
11151;SDS011;5630;49.342;10.802;2022-12-18T08:16:18;41.63;;;24.02;;
11151;SDS011;5630;49.342;10.802;2022-12-18T08:18:44;39.47;;;23.08;;
11151;SDS011;5630;49.342;10.802;2022-12-18T08:21:11;43.30;;;25.23;;
11151;SDS011;5630;49.342;10.802;2022-12-18T08:23:39;45.17;;;24.77;;
11151;SDS011;5630;49.342;10.802;2022-12-18T08:26:05;44.17;;;25.47;;
11151;SDS011;5630;49.342;10.802;2022-12-18T08:28:31;43.57;;;24.80;;
11151;SDS011;5630;49.342;10.802;2022-12-18T08:30:57;43.17;;;26.17;;
11151;SDS011;5630;49.342;10.802;2022-12-18T08:33:23;46.00;;;26.63;;
11151;SDS011;5630;49.342;10.802;2022-12-18T08:35:48;43.87;;;26.17;;
11151;SDS011;5630;49.342;10.802;2022-12-18T08:38:14;42.60;;;25.47;;
11151;SDS011;5630;49.342;10.802;2022-12-18T08:40:39;44.93;;;27.10;;
11151;SDS011;5630;49.342;10.802;2022-12-18T08:43:05;44.83;;;27.83;;
11151;SDS011;5630;49.342;10.802;2022-12-18T08:45:50;48.00;;;28.67;;
11151;SDS011;5630;49.342;10.802;2022-12-18T08:48:16;46.07;;;28.10;;
11151;SDS011;5630;49.342;10.802;2022-12-18T08:50:41;46.37;;;28.47;;
11151;SDS011;5630;49.342;10.802;2022-12-18T08:53:07;45.03;;;27.03;;
11151;SDS011;5630;49.342;10.802;2022-12-18T08:55:32;45.07;;;29.20;;
11151;SDS011;5630;49.342;10.802;2022-12-18T08:57:58;41.97;;;27.03;;
11151;SDS011;5630;49.342;10.802;2022-12-18T09:00:23;45.80;;;27.80;;
11151;SDS011;5630;49.342;10.802;2022-12-18T09:02:49;42.40;;;27.30;;
11151;SDS011;5630;49.342;10.802;2022-12-18T09:05:14;43.40;;;26.87;;
11151;SDS011;5630;49.342;10.802;2022-12-18T09:07:40;45.53;;;28.50;;
11151;SDS011;5630;49.342;10.802;2022-12-18T09:10:06;49.00;;;27.13;;
11151;SDS011;5630;49.342;10.802;2022-12-18T09:12:31;45.37;;;27.67;;
11151;SDS011;5630;49.342;10.802;2022-12-18T09:14:57;46.07;;;27.07;;
11151;SDS011;5630;49.342;10.802;2022-12-18T09:17:23;48.10;;;29.77;;
11151;SDS011;5630;49.342;10.802;2022-12-18T09:19:48;46.03;;;28.03;;
11151;SDS011;5630;49.342;10.802;2022-12-18T09:22:14;44.90;;;27.67;;
11151;SDS011;5630;49.342;10.802;2022-12-18T09:24:40;44.13;;;27.10;;
11151;SDS011;5630;49.342;10.802;2022-12-18T09:27:05;45.97;;;27.90;;
11151;SDS011;5630;49.342;10.802;2022-12-18T09:29:31;45.87;;;27.00;;
11151;SDS011;5630;49.342;10.802;2022-12-18T09:31:57;42.72;;;25.85;;
11151;SDS011;5630;49.342;10.802;2022-12-18T09:34:22;45.97;;;28.03;;
11151;SDS011;5630;49.342;10.802;2022-12-18T09:36:48;42.83;;;26.80;;
11151;SDS011;5630;49.342;10.802;2022-12-18T09:39:14;48.03;;;28.50;;
11151;SDS011;5630;49.342;10.802;2022-12-18T09:41:53;41.30;;;25.07;;
11151;SDS011;5630;49.342;10.802;2022-12-18T09:44:23;42.17;;;25.70;;
11151;SDS011;5630;49.342;10.802;2022-12-18T09:50:04;41.35;;;25.52;;
11151;SDS011;5630;49.342;10.802;2022-12-18T09:52:41;57.20;;;28.25;;
11151;SDS011;5630;49.342;10.802;2022-12-18T09:55:16;39.22;;;25.83;;
11151;SDS011;5630;49.342;10.802;2022-12-18T09:57:55;41.17;;;25.15;;
11151;SDS011;5630;49.342;10.802;2022-12-18T10:00:26;43.80;;;25.58;;
11151;SDS011;5630;49.342;10.802;2022-12-18T10:02:52;39.93;;;24.93;;
11151;SDS011;5630;49.342;10.802;2022-12-18T10:05:33;42.53;;;26.60;;
11151;SDS011;5630;49.342;10.802;2022-12-18T10:08:15;42.72;;;26.75;;
11151;SDS011;5630;49.342;10.802;2022-12-18T10:11:01;46.53;;;24.98;;
11151;SDS011;5630;49.342;10.802;2022-12-18T10:14:25;59.42;;;31.58;;
11151;SDS011;5630;49.342;10.802;2022-12-18T10:16:55;42.53;;;24.95;;
11151;SDS011;5630;49.342;10.802;2022-12-18T10:19:35;38.50;;;23.48;;
11151;SDS011;5630;49.342;10.802;2022-12-18T10:24:57;35.90;;;22.77;;
11151;SDS011;5630;49.342;10.802;2022-12-18T10:27:45;35.28;;;22.52;;
11151;SDS011;5630;49.342;10.802;2022-12-18T10:30:15;33.40;;;21.10;;
11151;SDS011;5630;49.342;10.802;2022-12-18T10:32:43;37.47;;;23.00;;
11151;SDS011;5630;49.342;10.802;2022-12-18T10:35:15;34.90;;;21.93;;
11151;SDS011;5630;49.342;10.802;2022-12-18T10:37:59;36.20;;;21.95;;
11151;SDS011;5630;49.342;10.802;2022-12-18T10:43:43;38.85;;;23.52;;
11151;SDS011;5630;49.342;10.802;2022-12-18T10:48:47;37.33;;;22.83;;
11151;SDS011;5630;49.342;10.802;2022-12-18T10:51:21;36.55;;;22.90;;
11151;SDS011;5630;49.342;10.802;2022-12-18T10:54:02;38.55;;;23.98;;
11151;SDS011;5630;49.342;10.802;2022-12-18T10:56:32;36.35;;;22.67;;
11151;SDS011;5630;49.342;10.802;2022-12-18T10:59:01;36.33;;;23.95;;
11151;SDS011;5630;49.342;10.802;2022-12-18T11:01:45;38.42;;;23.85;;
11151;SDS011;5630;49.342;10.802;2022-12-18T11:04:15;35.03;;;22.10;;
11151;SDS011;5630;49.342;10.802;2022-12-18T11:06:53;34.08;;;22.08;;
11151;SDS011;5630;49.342;10.802;2022-12-18T11:09:26;36.15;;;22.73;;
11151;SDS011;5630;49.342;10.802;2022-12-18T11:11:54;35.22;;;22.88;;
11151;SDS011;5630;49.342;10.802;2022-12-18T11:14:22;33.38;;;21.75;;
11151;SDS011;5630;49.342;10.802;2022-12-18T11:16:49;36.95;;;23.23;;
11151;SDS011;5630;49.342;10.802;2022-12-18T11:21:57;32.85;;;21.98;;
11151;SDS011;5630;49.342;10.802;2022-12-18T11:24:34;33.55;;;22.17;;
11151;SDS011;5630;49.342;10.802;2022-12-18T11:27:01;34.17;;;21.25;;
11151;SDS011;5630;49.342;10.802;2022-12-18T11:29:39;35.70;;;21.85;;
11151;SDS011;5630;49.342;10.802;2022-12-18T11:34:39;33.33;;;21.25;;
11151;SDS011;5630;49.342;10.802;2022-12-18T11:37:09;34.10;;;22.27;;
11151;SDS011;5630;49.342;10.802;2022-12-18T11:42:45;32.70;;;21.42;;
11151;SDS011;5630;49.342;10.802;2022-12-18T11:45:29;32.28;;;21.13;;
11151;SDS011;5630;49.342;10.802;2022-12-18T11:50:50;33.17;;;20.98;;
11151;SDS011;5630;49.342;10.802;2022-12-18T11:53:18;32.20;;;20.38;;
11151;SDS011;5630;49.342;10.802;2022-12-18T11:55:54;30.63;;;20.50;;
11151;SDS011;5630;49.342;10.802;2022-12-18T11:58:48;32.45;;;21.17;;
11151;SDS011;5630;49.342;10.802;2022-12-18T12:04:28;33.13;;;21.50;;
11151;SDS011;5630;49.342;10.802;2022-12-18T12:10:05;33.05;;;20.90;;
11151;SDS011;5630;49.342;10.802;2022-12-18T12:18:19;34.45;;;21.00;;
11151;SDS011;5630;49.342;10.802;2022-12-18T12:23:44;34.08;;;21.33;;
11151;SDS011;5630;49.342;10.802;2022-12-18T12:26:19;34.40;;;20.73;;
11151;SDS011;5630;49.342;10.802;2022-12-18T12:32:03;34.45;;;20.58;;
11151;SDS011;5630;49.342;10.802;2022-12-18T12:34:55;40.45;;;22.83;;
11151;SDS011;5630;49.342;10.802;2022-12-18T12:37:46;34.08;;;21.60;;
11151;SDS011;5630;49.342;10.802;2022-12-18T12:40:23;36.72;;;21.52;;
11151;SDS011;5630;49.342;10.802;2022-12-18T12:42:55;31.92;;;20.77;;
11151;SDS011;5630;49.342;10.802;2022-12-18T12:45:48;31.40;;;19.90;;
11151;SDS011;5630;49.342;10.802;2022-12-18T12:48:22;35.40;;;22.08;;
11151;SDS011;5630;49.342;10.802;2022-12-18T12:51:08;34.80;;;21.88;;
11151;SDS011;5630;49.342;10.802;2022-12-18T12:53:41;41.92;;;22.52;;
11151;SDS011;5630;49.342;10.802;2022-12-18T12:56:06;37.30;;;22.80;;
11151;SDS011;5630;49.342;10.802;2022-12-18T12:58:38;32.00;;;21.52;;
11151;SDS011;5630;49.342;10.802;2022-12-18T13:04:18;35.15;;;21.73;;
11151;SDS011;5630;49.342;10.802;2022-12-18T13:06:58;32.30;;;21.30;;
11151;SDS011;5630;49.342;10.802;2022-12-18T13:12:57;35.92;;;19.85;;
11151;SDS011;5630;49.342;10.802;2022-12-18T13:15:46;47.17;;;26.67;;
11151;SDS011;5630;49.342;10.802;2022-12-18T13:18:20;35.83;;;22.45;;
11151;SDS011;5630;49.342;10.802;2022-12-18T13:20:49;34.63;;;21.42;;
11151;SDS011;5630;49.342;10.802;2022-12-18T13:23:23;33.53;;;21.25;;
11151;SDS011;5630;49.342;10.802;2022-12-18T13:25:54;37.15;;;21.15;;
11151;SDS011;5630;49.342;10.802;2022-12-18T13:28:49;36.80;;;21.40;;
11151;SDS011;5630;49.342;10.802;2022-12-18T13:31:15;34.53;;;22.10;;
11151;SDS011;5630;49.342;10.802;2022-12-18T13:34:22;38.50;;;22.65;;
11151;SDS011;5630;49.342;10.802;2022-12-18T13:36:49;41.92;;;23.80;;
11151;SDS011;5630;49.342;10.802;2022-12-18T13:41:48;37.47;;;22.98;;
11151;SDS011;5630;49.342;10.802;2022-12-18T13:47:02;40.65;;;23.55;;
11151;SDS011;5630;49.342;10.802;2022-12-18T13:49:35;35.13;;;22.55;;
11151;SDS011;5630;49.342;10.802;2022-12-18T13:52:22;37.95;;;23.50;;
11151;SDS011;5630;49.342;10.802;2022-12-18T13:54:59;35.42;;;22.98;;
11151;SDS011;5630;49.342;10.802;2022-12-18T13:57:28;37.15;;;24.33;;
11151;SDS011;5630;49.342;10.802;2022-12-18T13:59:59;39.08;;;24.15;;
11151;SDS011;5630;49.342;10.802;2022-12-18T14:02:44;40.42;;;24.23;;
11151;SDS011;5630;49.342;10.802;2022-12-18T14:05:32;38.17;;;23.95;;
11151;SDS011;5630;49.342;10.802;2022-12-18T14:08:06;35.80;;;23.42;;
11151;SDS011;5630;49.342;10.802;2022-12-18T14:10:42;34.83;;;23.27;;
11151;SDS011;5630;49.342;10.802;2022-12-18T14:13:13;38.08;;;24.48;;
11151;SDS011;5630;49.342;10.802;2022-12-18T14:15:45;34.25;;;23.95;;
11151;SDS011;5630;49.342;10.802;2022-12-18T14:18:34;37.53;;;23.05;;
11151;SDS011;5630;49.342;10.802;2022-12-18T14:21:23;40.42;;;25.42;;
11151;SDS011;5630;49.342;10.802;2022-12-18T14:24:05;37.83;;;23.65;;
11151;SDS011;5630;49.342;10.802;2022-12-18T14:26:42;37.08;;;24.13;;
11151;SDS011;5630;49.342;10.802;2022-12-18T14:29:20;36.83;;;23.85;;
11151;SDS011;5630;49.342;10.802;2022-12-18T14:32:07;37.05;;;24.25;;
11151;SDS011;5630;49.342;10.802;2022-12-18T14:34:32;38.83;;;24.00;;
11151;SDS011;5630;49.342;10.802;2022-12-18T14:36:58;37.87;;;24.77;;
11151;SDS011;5630;49.342;10.802;2022-12-18T14:39:24;39.73;;;26.00;;
11151;SDS011;5630;49.342;10.802;2022-12-18T14:41:50;38.85;;;24.58;;
11151;SDS011;5630;49.342;10.802;2022-12-18T14:44:16;36.90;;;23.50;;
11151;SDS011;5630;49.342;10.802;2022-12-18T14:46:43;38.00;;;22.77;;
11151;SDS011;5630;49.342;10.802;2022-12-18T14:51:57;38.92;;;24.40;;
11151;SDS011;5630;49.342;10.802;2022-12-18T14:54:26;36.45;;;23.83;;
11151;SDS011;5630;49.342;10.802;2022-12-18T14:56:59;36.90;;;23.23;;
11151;SDS011;5630;49.342;10.802;2022-12-18T14:59:28;38.28;;;23.77;;
11151;SDS011;5630;49.342;10.802;2022-12-18T15:04:34;42.65;;;27.38;;
11151;SDS011;5630;49.342;10.802;2022-12-18T15:09:36;39.67;;;26.05;;
11151;SDS011;5630;49.342;10.802;2022-12-18T15:12:03;40.13;;;26.05;;
11151;SDS011;5630;49.342;10.802;2022-12-18T15:14:33;43.00;;;27.98;;
11151;SDS011;5630;49.342;10.802;2022-12-18T15:17:20;40.50;;;25.85;;
11151;SDS011;5630;49.342;10.802;2022-12-18T15:19:48;40.13;;;25.50;;
11151;SDS011;5630;49.342;10.802;2022-12-18T15:22:36;39.15;;;25.35;;
11151;SDS011;5630;49.342;10.802;2022-12-18T15:25:02;38.92;;;25.60;;
11151;SDS011;5630;49.342;10.802;2022-12-18T15:27:45;39.28;;;26.15;;
11151;SDS011;5630;49.342;10.802;2022-12-18T15:30:21;38.22;;;25.52;;
11151;SDS011;5630;49.342;10.802;2022-12-18T15:32:48;41.45;;;26.30;;
11151;SDS011;5630;49.342;10.802;2022-12-18T15:35:16;35.97;;;24.30;;
11151;SDS011;5630;49.342;10.802;2022-12-18T15:37:46;38.80;;;24.92;;
11151;SDS011;5630;49.342;10.802;2022-12-18T15:40:17;38.15;;;25.30;;
11151;SDS011;5630;49.342;10.802;2022-12-18T15:42:43;41.22;;;26.27;;
11151;SDS011;5630;49.342;10.802;2022-12-18T15:45:28;39.47;;;25.90;;
11151;SDS011;5630;49.342;10.802;2022-12-18T15:47:54;38.93;;;25.63;;
11151;SDS011;5630;49.342;10.802;2022-12-18T15:50:19;42.33;;;25.17;;
11151;SDS011;5630;49.342;10.802;2022-12-18T15:52:45;40.37;;;26.23;;
11151;SDS011;5630;49.342;10.802;2022-12-18T15:55:15;39.78;;;23.85;;
11151;SDS011;5630;49.342;10.802;2022-12-18T15:58:01;57.95;;;31.30;;
11151;SDS011;5630;49.342;10.802;2022-12-18T16:00:27;60.70;;;33.50;;
11151;SDS011;5630;49.342;10.802;2022-12-18T16:02:52;48.63;;;29.70;;